Columbus, Illinois
Current Conditions -  °F | °C
As of 1:54 AM on Sunday 26 Oct 2014 (Local Time) from KUIN Reporting Station
Clear Clear  
Wind Chill: 50°   Ceiling: Unl
Heat Index: 50°   Visibility: 10mi
Dew Point: 38°   Wind: 8mph
Humidity: 63%   Direction: 50°NE
Pressure: 30.03"   Gusts: NA
Location:  39.9302°N, 91.3035°W
Report Text: KUIN 260654Z AUTO 05007KT 10SM CLR 10/03 A3003 RMK AO2 SLP166 T01000033
Loading
Personal Weather Stations






























Interactive Weather Map
Tropical Storm Tracking
New forecast layout! Learn more

10-Day Weather Forecast

Advertisements
Track Severe Weather on mobile